Terminal Aerodrome Forecast
Issued by NWS

Current Version | Previous Version | Text Only | Print | Product List | Glossary On
Versions: 1 2 3 4 5 6 7 8 9 10 11 12 13 14 15 16 17 18 19 20 21 22 23 24 25 26 27 28 29 30 31 32 33
000 FTUS42 KRAH 280001 AAA TAFRWI TAF AMD KRWI 280001Z 2800/2824 16005KT P6SM BKN100 TEMPO 2800/2803 1SM BR FEW050 FM280700 20002KT 3SM BR SCT003 BKN100 TEMPO 2808/2812 1/2SM FG BKN003 FM281300 17003KT P6SM SCT030 BKN100 FM282000 17005KT P6SM VCTS SCT030CB=

USA.gov is the U.S. government's official web portal to all federal, state and local government web resources and services.